메인 페이지
METAR-TAF:

METAR-TAF

공항 :

김해국제공항

부산광역, 대한민국

위도: 35-11N, 경도: 128-56E, 고도: 4m

현재 날씨관측

예보는 17분 전, 15:00시(UTC)에 발표되었습니다.
남남서5kt
온도 27°C
습도 89%
기압 1006 hPa
시정 10km 이상
고도 1500ft 상공 구름 조금, 적란운.
고도 3000ft 상공 구름 많음
고도 6000ft 상공 구름 많음
뇌우

METAR: RKPK 151500Z 20005KT 9999 TS FEW015CB BKN030 BKN060 27/25 Q1006 NOSIG

시각: 00:17 (15:17 UTC)

예보

예보는 2 시간 27분 전, 12:50시(UTC)에 발표되었습니다.
예보 대상 시간: 15일 12시부터 16일 18시까지 (UTC)
남남서8kt
시정 10km 이상
고도 3000ft 상공 구름 많음
15일 1200시부터 (UTC)
남남서12kt
시정: 4800m
고도 1500ft 상공 구름 조금, 적란운.
고도 3000ft 상공 흐림
뇌우, 약한비, 박무
15일 1800시부터 (UTC)
남남서12kt
시정 10km 이상
고도 3000ft 상공 구름 많음

TAF: RKPK 151250Z 1512/1618 20008KT 9999 BKN030 TN27/1521Z TX32/1606Z FM151200 21012KT 4800 -TSRA BR FEW015CB OVC030 FM151800 21012KT 9999 NSW BKN030

4,000개 이상의 공항 관측 자료 및 예보 (METAR 및 TAF 보고).

지도상에서 검색 가능한 기상관측소가 노란 점과 빨간 점으로 표시되어 있습니다.

기상관측소 명을 보려면 표시 위로 마우스를 이동하세요.

날씨 관측과 예보를 보려면 클릭하세요.

지도 변경 : 확대하려면 엑스 표시가 있는 녹색 버튼, 축소하려면 빼기 표시가 있는 녹색 버튼, 다음 페이지의 지도를 보려면 녹색 화살표를 클릭하세요.


METAR-TAF: